»·PEaware :: DLH499 KSFO-KSEA

DLH499 :: KSFO-KSEA

FLIGHT INFORMATION

Flight Status: Arrived
Operator:
Lufthansa
More flights by this operator :: More flights under this callsign
Pilot: Isaac R. (8401)
Aircraft: Unknown
(B748)
More flights by this aircraft type
Origin: KSFO San Francisco Intl
United States
Destination: KSEA Seattle-Tacoma Intl
United States
More flights between these airports :: More routes between these airports
Route: +TRUKN2 DEDHD RBL LMT HAWKZ7
File this flight plan on PilotEdge
Remarks:
Altitude:
(Current/Filed)
38,000ft
Speed:
(Current/Filed)
185kts
Departed: 03-May-19 03:51 PM
Arrived: 03-May-19 05:21 PM
Distance/Time
Traveled:
589nm/1:30
Distance/Time
To Go:
Arrived

Flight Plot

Page will automatically refresh every two minutes.

Flight plan parsing failed; only flown route is shown


Map Options




Map Legend


Flown Route
Filed Route
Departure Airport
Arrival Airport
Navaid (VOR, NDB)
Fix

Horizontal Profiles

Position Reports

Time Latitude Longitude Heading Altitude Ground
Speed
03-May-19 15:00 37.618326 -122.391047 207 26ft 0kts
03-May-19 15:00 37.618326 -122.391047 207 26ft 0kts
03-May-19 15:01 37.618964 -122.393982 156 26ft 0kts
03-May-19 15:03 37.618964 -122.393982 156 26ft 0kts
03-May-19 15:03 37.618964 -122.393982 156 26ft 0kts
03-May-19 15:04 37.618926 -122.393970 157 26ft 0kts
03-May-19 15:05 37.618926 -122.393970 157 26ft 0kts
03-May-19 15:08 37.618977 -122.393989 156 26ft 0kts
03-May-19 15:09 37.618977 -122.393989 156 26ft 0kts
03-May-19 15:10 37.618977 -122.393989 156 26ft 0kts
03-May-19 15:11 37.618977 -122.393989 156 26ft 0kts
03-May-19 15:12 37.618977 -122.393989 156 26ft 0kts
03-May-19 15:13 37.618977 -122.393989 156 26ft 0kts
03-May-19 15:14 37.618977 -122.393989 156 26ft 0kts
03-May-19 15:15 37.618977 -122.393989 156 26ft 0kts
03-May-19 15:16 37.618977 -122.393989 156 26ft 0kts
03-May-19 15:17 37.618977 -122.393989 156 26ft 0kts
03-May-19 15:18 37.618977 -122.393989 156 26ft 0kts
03-May-19 15:19 37.618977 -122.393989 156 26ft 0kts
03-May-19 15:20 37.618977 -122.393989 156 26ft 0kts
03-May-19 15:21 37.618977 -122.393989 156 26ft 0kts
03-May-19 15:22 37.618977 -122.393989 156 26ft 0kts
03-May-19 15:23 37.618977 -122.393989 156 26ft 0kts
03-May-19 15:24 37.618977 -122.393989 156 26ft 0kts
03-May-19 15:25 37.618977 -122.393989 156 26ft 0kts
03-May-19 15:26 37.618977 -122.393989 156 26ft 0kts
03-May-19 15:27 37.618977 -122.393989 156 26ft 0kts
03-May-19 15:28 37.618977 -122.393989 156 26ft 0kts
03-May-19 15:29 37.618977 -122.393989 156 26ft 0kts
03-May-19 15:30 37.618977 -122.393989 156 26ft 0kts
03-May-19 15:31 37.618977 -122.393989 156 26ft 0kts
03-May-19 15:32 37.619472 -122.394220 161 26ft 2kts
03-May-19 15:33 37.619806 -122.394358 87 26ft 2kts
03-May-19 15:34 37.619646 -122.395035 72 26ft 0kts
03-May-19 15:35 37.619646 -122.395035 72 26ft 0kts
03-May-19 15:36 37.619646 -122.395035 72 26ft 0kts
03-May-19 15:37 37.619646 -122.395035 72 26ft 0kts
03-May-19 15:38 37.619772 -122.394495 73 26ft 1kts
03-May-19 15:39 37.620792 -122.393069 28 26ft 7kts
03-May-19 15:40 37.623080 -122.391051 68 26ft 8kts
03-May-19 15:41 37.622766 -122.387566 119 26ft 11kts
03-May-19 15:42 37.621301 -122.384169 117 26ft 9kts
03-May-19 15:43 37.619840 -122.380673 117 26ft 13kts
03-May-19 15:44 37.618099 -122.378013 110 26ft 8kts
03-May-19 15:45 37.617059 -122.374729 117 26ft 12kts
03-May-19 15:46 37.615134 -122.370171 117 26ft 17kts
03-May-19 15:47 37.613017 -122.366176 116 26ft 13kts
03-May-19 15:48 37.610954 -122.361253 118 26ft 13kts
03-May-19 15:49 37.611715 -122.358530 12 26ft 4kts
03-May-19 15:50 37.612872 -122.361023 297 26ft 50kts
03-May-19 15:51 37.630183 -122.398422 320 995ft 154kts
03-May-19 15:52 37.666718 -122.365643 43 2873ft 188kts
03-May-19 15:53 37.696760 -122.299811 66 4497ft 244kts
03-May-19 15:54 37.735146 -122.221213 27 7281ft 279kts
03-May-19 15:55 37.812505 -122.198000 6 10517ft 298kts
03-May-19 15:56 37.908015 -122.183196 5 12119ft 379kts
03-May-19 15:57 38.015506 -122.165660 5 15792ft 401kts
03-May-19 15:58 38.129189 -122.147038 5 19242ft 422kts
03-May-19 15:59 38.248531 -122.127260 4 22302ft 444kts
03-May-19 16:00 38.373692 -122.114083 355 25106ft 459kts
03-May-19 16:01 38.503504 -122.123911 354 27580ft 474kts
03-May-19 16:02 38.636841 -122.133474 354 29591ft 487kts
03-May-19 16:03 38.773546 -122.142922 355 31166ft 497kts
03-May-19 16:04 38.911251 -122.152457 354 33058ft 492kts
03-May-19 16:05 39.047455 -122.161937 354 34599ft 490kts
03-May-19 16:06 39.183012 -122.171408 354 35971ft 486kts
03-May-19 16:07 39.318025 -122.180869 354 37072ft 486kts
03-May-19 16:08 39.453082 -122.190374 354 38112ft 484kts
03-May-19 16:09 39.587328 -122.199861 354 39005ft 483kts
03-May-19 16:10 39.721786 -122.209401 354 39683ft 482kts
03-May-19 16:11 39.855709 -122.218908 354 39967ft 482kts
03-May-19 16:12 39.989609 -122.228496 354 39963ft 482kts
03-May-19 16:13 40.123493 -122.230925 4 39962ft 484kts
03-May-19 16:14 40.256839 -122.199050 8 39958ft 487kts
03-May-19 16:15 40.389918 -122.166150 8 39950ft 487kts
03-May-19 16:16 40.522939 -122.133914 8 39943ft 486kts
03-May-19 16:17 40.656281 -122.101474 8 39949ft 486kts
03-May-19 16:18 40.789108 -122.069001 8 39967ft 486kts
03-May-19 16:19 40.921844 -122.036412 8 39993ft 485kts
03-May-19 16:20 41.054808 -122.003618 8 40016ft 485kts
03-May-19 16:21 41.187439 -121.970785 7 40017ft 485kts
03-May-19 16:22 41.319857 -121.937862 7 40022ft 484kts
03-May-19 16:23 41.452573 -121.904739 7 40030ft 484kts
03-May-19 16:24 41.584835 -121.871580 7 40036ft 484kts
03-May-19 16:25 41.717051 -121.838302 7 40041ft 484kts
03-May-19 16:26 41.849624 -121.804833 7 40051ft 484kts
03-May-19 16:27 41.981625 -121.771360 8 40062ft 483kts
03-May-19 16:28 42.113615 -121.737641 8 40068ft 483kts
03-May-19 16:29 42.246224 -121.747059 347 40067ft 475kts
03-May-19 16:30 42.376135 -121.778026 347 40062ft 474kts
03-May-19 16:31 42.506088 -121.807921 348 40066ft 474kts
03-May-19 16:32 42.636341 -121.837665 348 40055ft 473kts
03-May-19 16:33 42.766016 -121.867515 348 40045ft 473kts
03-May-19 16:34 42.895409 -121.897419 348 40042ft 471kts
03-May-19 16:35 43.024873 -121.927486 348 40040ft 470kts
03-May-19 16:36 43.153538 -121.957397 348 40038ft 469kts
03-May-19 16:37 43.281829 -121.987512 348 40046ft 467kts
03-May-19 16:38 43.410326 -122.017766 349 40049ft 467kts
03-May-19 16:39 43.538072 -122.048027 349 40059ft 466kts
03-May-19 16:40 43.665646 -122.078394 349 40059ft 466kts
03-May-19 16:41 43.793599 -122.108721 349 40060ft 465kts
03-May-19 16:42 43.921148 -122.139203 349 40077ft 465kts
03-May-19 16:43 44.048573 -122.169819 349 40063ft 465kts
03-May-19 16:44 44.176405 -122.200678 349 40066ft 465kts
03-May-19 16:45 44.303721 -122.231549 349 40076ft 464kts
03-May-19 16:46 44.430680 -122.262465 349 40079ft 463kts
03-May-19 16:47 44.557773 -122.293552 349 40085ft 462kts
03-May-19 16:48 44.684234 -122.324625 349 40089ft 461kts
03-May-19 16:49 44.810227 -122.355719 350 40098ft 459kts
03-May-19 16:50 44.936176 -122.386933 350 40106ft 457kts
03-May-19 16:51 45.061356 -122.418006 350 39908ft 456kts
03-May-19 16:52 45.185856 -122.449226 350 38521ft 453kts
03-May-19 16:53 45.309624 -122.480346 351 36043ft 455kts
03-May-19 16:54 45.432429 -122.511375 351 34080ft 438kts
03-May-19 16:55 45.550980 -122.541253 351 32259ft 428kts
03-May-19 16:56 45.666834 -122.570819 351 30466ft 418kts
03-May-19 16:57 45.780455 -122.599641 351 28653ft 409kts
03-May-19 16:58 45.891202 -122.626847 351 26860ft 399kts
03-May-19 16:59 45.999388 -122.653774 350 25069ft 390kts
03-May-19 17:00 46.105146 -122.680062 351 23334ft 380kts
03-May-19 17:01 46.208509 -122.700032 352 21616ft 370kts
03-May-19 17:02 46.309271 -122.720014 352 19916ft 361kts
03-May-19 17:03 46.408625 -122.725946 358 18243ft 352kts
03-May-19 17:04 46.505718 -122.728899 357 16723ft 351kts
03-May-19 17:05 46.602591 -122.732351 357 14823ft 343kts
03-May-19 17:07 46.697212 -122.735787 357 13052ft 332kts
03-May-19 17:08 46.785583 -122.728993 22 11997ft 308kts
03-May-19 17:09 46.855041 -122.653907 43 10490ft 310kts
03-May-19 17:10 46.914530 -122.571573 41 9839ft 287kts
03-May-19 17:11 46.968964 -122.488999 43 8695ft 277kts
03-May-19 17:12 47.030532 -122.427037 26 7582ft 264kts
03-May-19 17:13 47.093459 -122.374716 28 6513ft 250kts
03-May-19 17:14 47.149077 -122.327418 29 5614ft 212kts
03-May-19 17:15 47.201984 -122.308994 359 4583ft 188kts
03-May-19 17:16 47.254262 -122.309562 359 3615ft 186kts
03-May-19 17:17 47.305979 -122.309165 359 2692ft 185kts
03-May-19 17:18 47.356823 -122.308726 358 1813ft 174kts
03-May-19 17:19 47.399608 -122.308318 358 1030ft 148kts
03-May-19 17:20 47.439465 -122.307975 358 448ft 125kts
03-May-19 17:21 47.449836 -122.307808 28 446ft 11kts
03-May-19 17:22 47.447521 -122.306318 180 446ft 8kts
03-May-19 17:23 47.444731 -122.306332 179 446ft 12kts
03-May-19 17:24 47.440494 -122.306375 180 446ft 16kts
03-May-19 17:25 47.437911 -122.306382 180 446ft 9kts
03-May-19 17:25 47.437474 -122.305012 43 446ft 3kts
03-May-19 17:27 47.438069 -122.304175 43 446ft 0kts
03-May-19 17:28 47.438069 -122.304175 43 446ft 0kts
03-May-19 17:28 47.438069 -122.304175 43 446ft 0kts
03-May-19 17:30 47.438069 -122.304175 43 446ft 0kts
03-May-19 17:30 47.438069 -122.304175 43 446ft 0kts
03-May-19 17:31 47.438069 -122.304175 43 446ft 0kts

Navigation Log

Ident Type
Flight plan parsing failed, navigation log unavailable